createdAt,value
2023-01-29T00:05:25.762Z,-3.5
2023-01-29T00:15:09.426Z,-3.3
2023-01-29T00:25:10.200Z,-3.3
2023-01-29T00:35:10.818Z,-3.3
2023-01-29T00:45:11.102Z,-3.3
2023-01-29T00:55:11.993Z,-3.4
2023-01-29T01:05:12.752Z,-3.5
2023-01-29T01:25:13.739Z,-3.5
2023-01-29T01:35:14.040Z,-3.5
2023-01-29T01:45:14.446Z,-3.3
2023-01-29T01:55:14.752Z,-3.3
2023-01-29T02:05:15.566Z,-3.3
2023-01-29T02:25:16.884Z,-3.2
2023-01-29T02:35:17.758Z,-3.3
2023-01-29T02:45:18.174Z,-3.4
2023-01-29T02:55:19.165Z,-3.4
2023-01-29T03:15:20.469Z,-3.2
2023-01-29T03:25:20.932Z,-3
2023-01-29T03:35:21.677Z,-3
2023-01-29T03:45:22.132Z,-3.1
2023-01-29T03:55:22.612Z,-3.1
2023-01-29T04:05:23.647Z,-3
2023-01-29T04:15:24.149Z,-3.1
2023-01-29T04:25:24.912Z,-3
2023-01-29T04:35:25.407Z,-3
2023-01-29T04:45:26.463Z,-2.8
2023-01-29T04:55:27.298Z,-2.6
2023-01-29T05:05:28.075Z,-2.2
2023-01-29T05:15:29.137Z,-2
2023-01-29T05:35:30.369Z,-1.6
2023-01-29T05:45:31.288Z,-1.5
2023-01-29T05:55:32.307Z,-1.4
2023-01-29T06:05:32.682Z,-1.4
2023-01-29T06:15:33.172Z,-1.4
2023-01-29T06:25:33.402Z,-1.3
2023-01-29T06:35:34.318Z,-1.3
2023-01-29T06:45:34.995Z,-1.3
2023-01-29T06:55:35.544Z,-1.2
2023-01-29T07:05:35.824Z,-1.1
2023-01-29T07:15:37.288Z,-1.1
2023-01-29T07:25:37.611Z,-1
2023-01-29T07:35:37.854Z,-1
2023-01-29T07:45:38.451Z,-1
2023-01-29T07:55:39.457Z,-1
2023-01-29T08:05:39.792Z,-0.9
2023-01-29T08:25:41.058Z,-0.7
2023-01-29T08:35:41.267Z,-0.6
2023-01-29T08:45:41.707Z,-0.5
2023-01-29T08:55:42.571Z,-0.4
2023-01-29T09:05:43.304Z,-0.4
2023-01-29T09:15:43.572Z,-0.3
2023-01-29T09:25:44.449Z,-0.2
2023-01-29T09:35:45.389Z,0
2023-01-29T09:45:45.742Z,0.1
2023-01-29T09:55:45.902Z,0.1
2023-01-29T10:05:46.546Z,0.2
2023-01-29T10:15:46.808Z,0.4
2023-01-29T10:25:47.482Z,0.5
2023-01-29T10:35:48.514Z,0.6
2023-01-29T10:45:49.242Z,0.6
2023-01-29T10:55:49.864Z,0.6
2023-01-29T11:05:49.968Z,0.7
2023-01-29T11:15:50.519Z,0.7
2023-01-29T11:25:51.246Z,0.8
2023-01-29T11:28:29.597Z,0.8
2023-01-29T11:35:59.731Z,0.9
2023-01-29T11:45:59.929Z,1
2023-01-29T11:56:00.857Z,1
2023-01-29T12:06:01.223Z,1
2023-01-29T12:16:01.719Z,1.2
2023-01-29T12:26:02.339Z,1.3
2023-01-29T12:36:02.528Z,1.3
2023-01-29T12:46:03.460Z,1.4
2023-01-29T12:56:04.012Z,1.3
2023-01-29T13:06:04.607Z,1.4
2023-01-29T13:16:05.463Z,1.4
2023-01-29T13:26:05.663Z,1.4
2023-01-29T13:36:05.919Z,1.4
2023-01-29T13:46:06.757Z,1.5
2023-01-29T14:06:08.043Z,1.5
2023-01-29T14:16:08.788Z,1.5
2023-01-29T14:26:09.609Z,1.5
2023-01-29T14:36:10.041Z,1.5
2023-01-29T14:46:10.669Z,1.5
2023-01-29T14:56:11.112Z,1.6
2023-01-29T15:06:11.498Z,1.6
2023-01-29T15:16:11.678Z,1.7
2023-01-29T15:26:12.642Z,1.7
2023-01-29T15:36:12.816Z,1.7
2023-01-29T15:46:13.335Z,1.8
2023-01-29T15:56:13.653Z,1.7
2023-01-29T16:06:14.288Z,1.7
2023-01-29T16:16:15.053Z,1.7
2023-01-29T16:26:15.739Z,1.7
2023-01-29T16:36:16.185Z,1.7
2023-01-29T16:56:17.891Z,1.7
2023-01-29T17:06:18.160Z,1.7
2023-01-29T17:16:19.188Z,1.8
2023-01-29T17:26:20.018Z,1.9
2023-01-29T17:36:20.105Z,2
2023-01-29T17:46:20.828Z,2
2023-01-29T18:06:22.295Z,2
2023-01-29T18:16:22.872Z,2.1
2023-01-29T18:26:22.995Z,2
2023-01-29T18:36:23.344Z,1.9
2023-01-29T18:46:23.737Z,1.9
2023-01-29T18:56:24.240Z,1.9
2023-01-29T19:06:24.771Z,1.8
2023-01-29T19:16:25.327Z,1.7
2023-01-29T19:26:25.790Z,1.7
2023-01-29T19:36:26.772Z,1.7
2023-01-29T19:46:27.704Z,1.7
2023-01-29T19:56:28.582Z,1.8
2023-01-29T20:06:28.796Z,2
2023-01-29T20:16:29.219Z,2
2023-01-29T20:26:30.077Z,2
2023-01-29T20:36:30.385Z,2
2023-01-29T20:46:31.153Z,2.1
2023-01-29T20:56:36.290Z,2.2
2023-01-29T21:06:32.782Z,2.3
2023-01-29T21:16:33.683Z,2.2
2023-01-29T21:36:34.508Z,2.3
2023-01-29T21:46:35.101Z,2.4
2023-01-29T22:06:35.611Z,2.4
2023-01-29T22:16:36.311Z,2.4
2023-01-29T22:36:36.659Z,2.6
2023-01-29T22:46:37.744Z,2.6
2023-01-29T22:56:38.022Z,2.7
2023-01-29T23:06:39.027Z,2.8
2023-01-29T23:16:39.168Z,2.8
2023-01-29T23:26:40.216Z,2.9
2023-01-29T23:36:40.756Z,3
2023-01-29T23:46:41.002Z,3.1
2023-01-29T23:56:41.395Z,3.1
